Аэропорт: Борисполь. Киев

ICAO: UKBB

METAR:
2020-08-13 11:30:00
UKBB 131130Z 34004MPS 310V010 CAVOK 21/07 Q1017 R36R/CLRD// NOSIG
METAR:
2020-08-13 05:00:00
TAF UKBB 130500Z 1306/1406 34005G11MPS 9999 SCT040 BECMG 1316/1318 35003G08MPS